Time;durP1;ratioP1;P1;durP2;ratioP2;P2;SDS_P1;SDS_P2;PMS_P1;PMS_P2;Temp;Humidity;BMP_temperature;BMP_pressure;BME280_temperature;BME280_humidity;BME280_pressure;Samples;Min_cycle;Max_cycle;Signal;HPM_P1;HPM_P2
2022/05/25 00:02:05;;;;;;;;;0.33;0.33;;;;;14.99;59.35;100818.22;5025228;28;45376;-61
2022/05/25 00:04:31;;;;;;;;;1.00;1.00;;;;;14.99;59.17;100819.09;5019915;28;45519;-61
2022/05/25 00:06:57;;;;;;;;;1.00;1.00;;;;;14.97;59.91;100812.97;5034756;28;46060;-61
2022/05/25 00:09:22;;;;;;;;;1.00;1.00;;;;;14.97;59.48;100809.41;5024236;28;46134;-62
2022/05/25 00:11:47;;;;;;;;;1.00;1.00;;;;;14.97;59.61;100817.44;5025806;28;47097;-61
2022/05/25 00:14:13;;;;;;;;;1.00;1.00;;;;;14.96;59.56;100807.72;5027432;28;45492;-62
2022/05/25 00:16:39;;;;;;;;;3.00;1.00;;;;;14.94;59.65;100801.59;5028186;28;45425;-63
2022/05/25 00:21:49;;;;;;;;;2.00;2.00;;;;;14.95;59.85;100808.69;5040603;28;45488;-63
2022/05/25 00:24:15;;;;;;;;;1.00;1.00;;;;;14.93;59.88;100807.94;5034932;28;45690;-63
2022/05/25 00:26:40;;;;;;;;;0.00;0.00;;;;;14.92;60.02;100808.91;5036143;28;46037;-64
2022/05/25 00:29:06;;;;;;;;;0.33;0.33;;;;;14.90;59.91;100810.84;5027628;28;45461;-63
2022/05/25 00:31:32;;;;;;;;;1.00;1.00;;;;;14.87;59.85;100813.75;5042942;28;45362;-62
2022/05/25 00:33:58;;;;;;;;;0.67;0.00;;;;;14.88;59.70;100810.94;5034183;28;45720;-62
2022/05/25 00:36:24;;;;;;;;;0.00;0.00;;;;;14.86;59.96;100809.34;5035458;28;46382;-62
2022/05/25 00:38:49;;;;;;;;;1.67;1.00;;;;;14.83;59.49;100813.06;5032825;28;45695;-62
2022/05/25 00:41:15;;;;;;;;;1.00;1.00;;;;;14.84;59.84;100819.28;5015650;28;45276;-65
2022/05/25 00:43:42;;;;;;;;;1.00;1.00;;;;;14.71;59.43;100798.75;5024326;28;45613;-63
2022/05/25 00:46:12;;;;;;;;;2.33;1.00;;;;;14.80;59.90;100832.03;5042359;28;45429;-63
2022/05/25 00:48:48;;;;;;;;;0.00;0.00;;;;;14.75;59.86;100824.34;5036408;28;45311;-61
2022/05/25 00:51:24;;;;;;;;;2.33;1.00;;;;;14.77;60.18;100828.72;5024696;28;45579;-62
2022/05/25 00:54:12;;;;;;;;;0.00;0.00;;;;;14.74;60.21;100836.00;5026703;28;45429;-62
2022/05/25 00:56:43;;;;;;;;;1.00;1.00;;;;;14.73;60.33;100828.94;5034600;28;46268;-64
2022/05/25 00:59:14;;;;;;;;;0.67;0.67;;;;;14.72;60.49;100835.25;5034249;28;45484;-63
2022/05/25 01:01:41;;;;;;;;;1.00;1.00;;;;;14.68;60.35;100841.78;5031225;28;45941;-64
2022/05/25 01:04:07;;;;;;;;;1.00;1.00;;;;;14.68;60.65;100843.59;5016212;28;45363;-62
2022/05/25 01:07:02;;;;;;;;;1.00;0.00;;;;;14.66;60.66;100838.34;5030844;28;45509;-62
2022/05/25 01:09:27;;;;;;;;;1.00;1.00;;;;;14.66;60.63;100843.69;5010201;28;45468;-63
2022/05/25 01:11:52;;;;;;;;;1.00;1.00;;;;;14.65;60.50;100841.13;5038433;28;45427;-63
2022/05/25 01:14:30;;;;;;;;;1.00;1.00;;;;;14.63;60.96;100845.75;5021316;28;45280;-62
2022/05/25 01:17:07;;;;;;;;;1.33;1.33;;;;;14.59;61.32;100858.50;5037957;28;45358;-63
2022/05/25 01:19:57;;;;;;;;;3.00;2.00;;;;;14.58;61.58;100856.75;5025091;28;45330;-62
2022/05/25 01:22:34;;;;;;;;;1.33;1.33;;;;;14.53;61.86;100853.53;5031985;28;45597;-64
2022/05/25 01:25:28;;;;;;;;;1.00;1.00;;;;;14.50;62.53;100852.91;5028078;28;45457;-63
2022/05/25 01:27:54;;;;;;;;;1.00;1.00;;;;;14.45;62.80;100862.13;5018036;28;47471;-63
2022/05/25 01:30:21;;;;;;;;;3.33;1.33;;;;;14.41;62.86;100854.34;5033334;28;45468;-63
2022/05/25 01:33:20;;;;;;;;;1.00;1.00;;;;;14.37;62.58;100858.19;5033235;28;45308;-62
2022/05/25 01:36:23;;;;;;;;;1.00;1.00;;;;;14.35;62.77;100860.13;5038386;28;45534;-64
2022/05/25 01:39:12;;;;;;;;;3.00;1.00;;;;;14.33;62.64;100862.03;5026970;28;45431;-64
2022/05/25 01:42:13;;;;;;;;;1.00;1.00;;;;;14.38;62.62;100870.59;5017761;28;45997;-61
2022/05/25 01:44:44;;;;;;;;;1.00;1.00;;;;;14.35;62.24;100871.69;5041103;28;45397;-62
2022/05/25 01:47:11;;;;;;;;;1.33;1.33;;;;;14.38;62.66;100876.81;5034403;28;45508;-62
2022/05/25 01:49:45;;;;;;;;;2.00;2.00;;;;;14.38;62.83;100874.13;5035985;28;47137;-66
2022/05/25 01:52:16;;;;;;;;;1.67;1.33;;;;;14.36;62.50;100865.38;5036612;28;45332;-63
2022/05/25 01:54:51;;;;;;;;;1.00;1.00;;;;;14.40;62.86;100871.34;5034980;28;45421;-63
2022/05/25 01:57:21;;;;;;;;;2.00;1.00;;;;;14.37;63.25;100863.53;5051127;28;45639;-61
2022/05/25 01:59:46;;;;;;;;;1.33;1.33;;;;;14.29;63.53;100876.56;5033523;28;47117;-65
2022/05/25 02:04:59;;;;;;;;;1.00;1.00;;;;;14.15;64.32;100883.69;5024458;28;45706;-60
2022/05/25 02:07:43;;;;;;;;;3.00;1.00;;;;;14.14;64.90;100881.97;5027432;28;45540;-62
2022/05/25 02:10:41;;;;;;;;;1.00;1.00;;;;;14.09;64.09;100881.44;5033477;28;46377;-63
2022/05/25 02:13:19;;;;;;;;;1.00;1.00;;;;;14.13;63.98;100882.94;5017037;28;45595;-62
2022/05/25 02:16:05;;;;;;;;;1.33;1.33;;;;;14.16;63.94;100880.06;5026840;28;45449;-63
2022/05/25 02:18:51;;;;;;;;;1.67;1.33;;;;;14.17;63.77;100895.16;5065197;28;45514;-62
2022/05/25 02:21:42;;;;;;;;;1.00;1.00;;;;;14.14;63.64;100890.00;5036637;28;45314;-62
2022/05/25 02:24:12;;;;;;;;;0.33;0.33;;;;;14.12;63.61;100893.75;5035071;28;45357;-64
2022/05/25 02:26:51;;;;;;;;;0.00;0.00;;;;;14.08;63.57;100895.78;5034714;28;45347;-63
2022/05/25 02:29:29;;;;;;;;;1.00;1.00;;;;;14.04;63.74;100894.25;5026612;28;45758;-62
2022/05/25 02:32:32;;;;;;;;;2.33;1.00;;;;;14.03;63.60;100889.00;5017545;28;45901;-62
2022/05/25 02:34:59;;;;;;;;;0.00;0.00;;;;;14.03;64.07;100892.53;5020903;28;45447;-63
2022/05/25 02:37:29;;;;;;;;;1.00;0.67;;;;;14.04;63.62;100894.25;5022024;28;45828;-64
2022/05/25 02:39:55;;;;;;;;;0.00;0.00;;;;;14.00;63.92;100881.19;5032915;28;45543;-63
2022/05/25 02:42:21;;;;;;;;;2.00;0.33;;;;;14.04;63.99;100891.56;5033547;28;46140;-63
2022/05/25 02:44:47;;;;;;;;;0.00;0.00;;;;;14.03;64.27;100897.88;5020603;28;45484;-62
2022/05/25 02:47:13;;;;;;;;;3.00;1.00;;;;;14.05;64.26;100901.31;5033846;28;45545;-64
2022/05/25 02:49:38;;;;;;;;;1.00;1.00;;;;;14.03;64.32;100903.22;5032150;28;45534;-62
2022/05/25 02:52:07;;;;;;;;;1.00;1.00;;;;;14.01;64.74;100910.50;5016862;28;45423;-63
2022/05/25 02:54:33;;;;;;;;;1.33;0.33;;;;;13.97;64.85;100909.00;5016404;28;45339;-61
2022/05/25 02:56:59;;;;;;;;;1.00;1.00;;;;;13.96;65.21;100923.31;5029914;28;45571;-60
2022/05/25 02:59:24;;;;;;;;;1.00;1.00;;;;;13.97;64.42;100916.16;5018593;28;45343;-61
2022/05/25 03:01:49;;;;;;;;;1.33;1.33;;;;;13.96;64.70;100917.97;5029062;28;45379;-61
2022/05/25 03:04:15;;;;;;;;;3.00;1.00;;;;;13.95;64.75;100926.94;5020704;28;45335;-63
2022/05/25 03:06:41;;;;;;;;;1.00;1.00;;;;;13.95;65.08;100921.59;5017539;28;45581;-62
2022/05/25 03:09:06;;;;;;;;;1.00;1.00;;;;;13.90;65.90;100928.19;5029392;28;45416;-64
2022/05/25 03:11:32;;;;;;;;;1.00;1.00;;;;;13.83;65.85;100925.06;5016391;28;46341;-65
2022/05/25 03:13:57;;;;;;;;;1.00;1.00;;;;;13.81;65.90;100930.50;5015417;28;45347;-62
2022/05/25 03:16:23;;;;;;;;;1.00;1.00;;;;;13.79;66.01;100942.22;5031277;28;45677;-62
2022/05/25 03:18:50;;;;;;;;;2.00;2.00;;;;;13.74;65.97;100942.53;5034537;28;45270;-62
2022/05/25 03:21:18;;;;;;;;;0.00;0.00;;;;;13.76;66.62;100945.13;5025041;28;45565;-63
2022/05/25 03:23:43;;;;;;;;;1.00;1.00;;;;;13.76;66.40;100942.44;5027031;28;45348;-65
2022/05/25 03:26:09;;;;;;;;;0.33;0.33;;;;;13.72;66.26;100948.94;5036671;28;45306;-62
2022/05/25 03:28:36;;;;;;;;;1.00;1.00;;;;;13.75;66.04;100957.63;5032736;28;45244;-62
2022/05/25 03:31:02;;;;;;;;;1.67;1.33;;;;;13.69;66.32;100955.34;5020117;28;46395;-62
2022/05/25 03:33:28;;;;;;;;;1.00;1.00;;;;;13.69;66.64;100965.19;5024366;28;45442;-64
2022/05/25 03:35:53;;;;;;;;;0.67;0.67;;;;;13.69;65.74;100959.84;5015905;28;45366;-62
2022/05/25 03:38:19;;;;;;;;;3.33;2.00;;;;;13.67;66.22;100965.28;5030556;28;45609;-63
2022/05/25 03:40:45;;;;;;;;;1.67;1.67;;;;;13.66;66.08;100968.03;5028473;28;46718;-63
2022/05/25 03:43:14;;;;;;;;;2.00;2.00;;;;;13.66;66.09;100973.38;5034430;28;45713;-63
2022/05/25 03:45:40;;;;;;;;;2.00;2.00;;;;;13.60;66.18;100966.59;5036080;28;45485;-63
2022/05/25 03:48:07;;;;;;;;;3.00;1.00;;;;;13.65;66.01;100982.34;5015893;28;45365;-62
2022/05/25 03:50:38;;;;;;;;;3.00;2.00;;;;;13.57;66.69;100983.69;5026704;28;45987;-62
2022/05/25 03:53:04;;;;;;;;;4.00;2.00;;;;;13.66;66.24;101000.09;5034409;28;45354;-62
2022/05/25 03:55:30;;;;;;;;;1.00;1.00;;;;;13.69;66.28;101003.47;5036378;28;45462;-62
2022/05/25 03:57:56;;;;;;;;;1.00;1.00;;;;;13.74;66.07;101004.03;5035619;28;45359;-62
2022/05/25 04:00:21;;;;;;;;;2.00;2.00;;;;;13.77;65.80;100997.63;5036467;28;45354;-63
2022/05/25 04:02:47;;;;;;;;;3.00;2.00;;;;;13.77;66.34;101001.16;5018645;28;45458;-64
2022/05/25 04:05:13;;;;;;;;;2.00;2.00;;;;;13.80;66.07;101002.75;5030252;28;45440;-62
2022/05/25 04:07:44;;;;;;;;;3.00;3.00;;;;;13.79;66.15;101006.38;5016639;28;45478;-64
2022/05/25 04:10:13;;;;;;;;;2.33;2.00;;;;;13.74;66.05;101005.84;5035358;28;46560;-62
2022/05/25 04:12:40;;;;;;;;;2.00;2.00;;;;;13.68;66.64;101000.88;5037734;28;45604;-62
2022/05/25 04:15:07;;;;;;;;;3.00;3.00;;;;;13.64;66.45;101007.34;5030113;28;45440;-62
2022/05/25 04:17:33;;;;;;;;;2.33;2.33;;;;;13.60;66.93;101005.84;5015750;28;45602;-63
2022/05/25 04:19:59;;;;;;;;;3.33;2.00;;;;;13.57;66.16;101002.41;5035036;28;46836;-62
2022/05/25 04:22:24;;;;;;;;;2.33;1.67;;;;;13.55;66.69;100998.13;5021920;28;45381;-63
2022/05/25 04:24:51;;;;;;;;;3.00;3.00;;;;;13.56;66.61;101007.84;5016196;28;45175;-61
2022/05/25 04:27:16;;;;;;;;;3.67;2.33;;;;;13.55;66.37;101004.31;5022840;28;45473;-63
2022/05/25 04:29:42;;;;;;;;;2.33;2.33;;;;;13.53;66.17;101011.53;5020070;28;45410;-63
2022/05/25 04:32:07;;;;;;;;;7.00;3.00;;;;;13.57;66.60;101012.25;5029025;28;45530;-65
2022/05/25 04:34:33;;;;;;;;;3.00;3.00;;;;;13.61;66.24;101018.25;5025235;28;45571;-60
2022/05/25 04:37:48;;;;;;;;;3.67;3.00;;;;;13.62;65.54;101011.94;5016784;28;45404;-64
2022/05/25 04:39:45;;;;;;;;;2.00;2.00;;;;;13.68;65.96;101016.94;5015391;28;46031;-62
2022/05/25 04:42:11;;;;;;;;;7.67;5.00;;;;;13.67;65.70;101020.53;5027553;28;45292;-62
2022/05/25 04:44:37;;;;;;;;;3.00;3.00;;;;;13.65;65.51;101027.78;5020168;28;45481;-60
2022/05/25 04:47:02;;;;;;;;;4.00;4.00;;;;;13.65;66.00;101031.31;5018559;28;46948;-63
2022/05/25 04:49:28;;;;;;;;;4.00;4.00;;;;;13.67;65.76;101034.78;5018530;28;45973;-65
2022/05/25 04:51:54;;;;;;;;;3.00;3.00;;;;;13.71;65.82;101038.13;5036463;28;45224;-63
2022/05/25 04:54:19;;;;;;;;;1.00;1.00;;;;;13.73;65.91;101034.38;5033408;28;45471;-62
2022/05/25 04:59:28;;;;;;;;;4.00;4.00;;;;;13.78;65.66;101050.13;5021700;28;45448;-62
2022/05/25 05:01:53;;;;;;;;;4.67;4.00;;;;;13.76;65.50;101044.03;5026021;28;45564;-63
2022/05/25 05:04:19;;;;;;;;;3.67;3.00;;;;;13.82;65.54;101052.53;5020540;28;45200;-61
2022/05/25 05:06:44;;;;;;;;;4.00;4.00;;;;;13.88;65.31;101048.59;5019252;28;45240;-62
2022/05/25 05:09:10;;;;;;;;;4.00;4.00;;;;;13.95;64.53;101057.13;5028914;28;46350;-62
2022/05/25 05:11:37;;;;;;;;;5.00;3.00;;;;;13.99;64.24;101055.97;5037920;28;46109;-64
2022/05/25 05:14:03;;;;;;;;;5.67;4.00;;;;;14.05;64.19;101060.91;5049035;28;45531;-62
2022/05/25 05:16:28;;;;;;;;;8.67;5.00;;;;;14.11;64.25;101063.22;5055108;28;45366;-67
2022/05/25 05:18:54;;;;;;;;;3.33;3.33;;;;;14.15;64.65;101067.41;5040325;28;45487;-65
2022/05/25 05:21:19;;;;;;;;;4.67;4.67;;;;;14.06;64.59;101066.19;5054769;28;45335;-64
2022/05/25 05:23:45;;;;;;;;;1.67;1.67;;;;;14.04;64.88;101070.75;5050280;28;45350;-65
2022/05/25 05:26:11;;;;;;;;;4.67;4.00;;;;;14.05;65.68;101079.63;5059008;28;45634;-63
2022/05/25 05:28:39;;;;;;;;;4.67;4.00;;;;;13.98;65.04;101073.81;5051736;28;46933;-60
2022/05/25 05:31:06;;;;;;;;;5.00;5.00;;;;;14.00;65.47;101071.91;5038170;28;45324;-60
2022/05/25 05:33:32;;;;;;;;;3.33;3.00;;;;;14.00;64.56;101073.72;5036136;28;45325;-66
2022/05/25 05:36:16;;;;;;;;;7.33;3.00;;;;;14.08;64.74;101071.44;5047105;28;45632;-64
2022/05/25 05:38:52;;;;;;;;;3.00;2.00;;;;;14.10;63.90;101065.03;5045212;28;46392;-64
2022/05/25 05:41:23;;;;;;;;;8.33;3.33;;;;;14.09;63.89;101055.28;5057037;28;45374;-61
2022/05/25 05:43:49;;;;;;;;;1.67;1.67;;;;;14.05;62.91;101051.06;5025814;28;45471;-61
2022/05/25 05:46:15;;;;;;;;;3.00;3.00;;;;;14.09;63.76;101062.44;5017408;28;45574;-61
2022/05/25 05:48:42;;;;;;;;;4.00;3.00;;;;;14.10;63.30;101054.31;5018348;28;45485;-62
2022/05/25 05:51:09;;;;;;;;;3.00;3.00;;;;;14.12;63.19;101048.88;5018503;28;45402;-64
2022/05/25 05:53:34;;;;;;;;;0.00;0.00;;;;;14.12;62.74;101051.56;5016784;28;45434;-62
2022/05/25 05:56:01;;;;;;;;;2.00;2.00;;;;;14.11;62.92;101049.84;5016255;28;45438;-62
2022/05/25 05:58:27;;;;;;;;;2.00;2.00;;;;;14.15;62.25;101057.56;5032395;28;46162;-63
2022/05/25 06:00:52;;;;;;;;;2.00;2.00;;;;;14.18;62.38;101060.03;5048559;28;45350;-64
2022/05/25 06:03:18;;;;;;;;;2.00;2.00;;;;;14.20;62.46;101059.09;5036669;28;45511;-63
2022/05/25 06:05:44;;;;;;;;;2.00;2.00;;;;;14.17;62.39;101061.00;5045306;28;45465;-63
2022/05/25 06:08:18;;;;;;;;;2.67;2.00;;;;;14.20;62.93;101073.34;5028911;28;46339;-65
2022/05/25 06:10:44;;;;;;;;;1.00;1.00;;;;;14.20;63.01;101070.66;5017449;28;45454;-65
2022/05/25 06:13:10;;;;;;;;;4.00;3.00;;;;;14.29;62.10;101086.09;5017929;28;45237;-62
2022/05/25 06:21:07;;;;;;;;;2.33;2.33;;;;;14.34;61.31;101085.84;5057607;28;45397;-64
2022/05/25 06:23:32;;;;;;;;;2.33;2.00;;;;;14.33;61.45;101094.81;5045617;28;45581;-63
2022/05/25 06:25:58;;;;;;;;;0.00;0.00;;;;;14.39;60.23;101100.63;5035880;28;45436;-63
2022/05/25 06:28:23;;;;;;;;;2.00;2.00;;;;;14.41;60.19;101101.38;5035144;28;45746;-63
2022/05/25 06:30:49;;;;;;;;;2.00;2.00;;;;;14.43;60.28;101103.94;5034061;28;45442;-63
2022/05/25 06:33:14;;;;;;;;;2.00;2.00;;;;;14.46;59.15;101103.81;5029577;28;45382;-61
2022/05/25 06:35:40;;;;;;;;;2.00;2.00;;;;;14.49;59.09;101108.97;5040088;28;45643;-63
2022/05/25 06:38:05;;;;;;;;;5.00;3.00;;;;;14.53;58.91;101117.66;5045903;28;46916;-62
2022/05/25 06:40:31;;;;;;;;;1.00;1.00;;;;;14.57;58.57;101111.13;5036603;28;45228;-64
2022/05/25 06:42:56;;;;;;;;;1.00;1.00;;;;;14.56;57.55;101126.31;5022586;28;45358;-63
2022/05/25 06:45:21;;;;;;;;;3.00;2.00;;;;;14.60;58.16;101132.38;5023716;28;45216;-63
2022/05/25 06:47:47;;;;;;;;;2.67;2.67;;;;;14.58;58.84;101121.72;5050588;28;46131;-62
2022/05/25 06:50:13;;;;;;;;;3.00;1.67;;;;;14.64;58.44;101136.56;5042947;28;45225;-63
2022/05/25 06:52:39;;;;;;;;;4.00;2.00;;;;;14.68;58.32;101141.59;5037117;28;45373;-65
2022/05/25 06:55:06;;;;;;;;;1.67;1.00;;;;;14.62;57.99;101131.31;5051311;28;45350;-62
2022/05/25 06:57:31;;;;;;;;;2.00;2.00;;;;;14.64;57.63;101134.75;5055670;28;47055;-62
2022/05/25 06:59:56;;;;;;;;;2.33;2.33;;;;;14.67;56.80;101131.84;5026297;28;45303;-62
2022/05/25 07:02:25;;;;;;;;;2.00;2.00;;;;;14.68;57.61;101140.75;5016945;28;45423;-61
2022/05/25 07:04:52;;;;;;;;;4.00;4.00;;;;;14.71;57.28;101146.78;5017294;28;45604;-59
2022/05/25 07:07:18;;;;;;;;;3.00;1.67;;;;;14.74;56.93;101146.59;5043843;28;45432;-62
2022/05/25 07:09:43;;;;;;;;;2.00;2.00;;;;;14.73;57.01;101128.81;5035462;28;45905;-62
2022/05/25 07:12:09;;;;;;;;;2.00;2.00;;;;;14.84;57.06;101137.94;5040358;28;45547;-62
2022/05/25 07:14:36;;;;;;;;;2.00;2.00;;;;;14.83;56.06;101139.75;5037139;28;45592;-62
2022/05/25 07:17:03;;;;;;;;;4.67;3.00;;;;;14.88;56.45;101144.81;5021567;28;46264;-63
2022/05/25 07:19:29;;;;;;;;;8.33;8.33;;;;;14.93;56.26;101148.91;5016588;28;45319;-61
2022/05/25 07:21:55;;;;;;;;;3.00;2.00;;;;;14.96;56.17;101150.53;5015543;28;45391;-62
2022/05/25 07:24:21;;;;;;;;;2.33;2.33;;;;;14.95;55.97;101151.47;5042884;28;45570;-64
2022/05/25 07:26:46;;;;;;;;;2.00;2.00;;;;;14.97;56.30;101162.94;5037492;28;45386;-63
2022/05/25 07:29:12;;;;;;;;;4.00;4.00;;;;;15.03;56.45;101166.09;5057159;28;45320;-64
2022/05/25 07:31:51;;;;;;;;;3.00;2.00;;;;;15.10;55.76;101163.00;5056500;28;45217;-62
2022/05/25 07:34:20;;;;;;;;;2.00;2.00;;;;;15.21;55.28;101173.88;5019943;28;45612;-65
2022/05/25 07:36:57;;;;;;;;;1.00;1.00;;;;;15.19;55.69;101163.28;5015104;28;45347;-63
2022/05/25 07:39:32;;;;;;;;;0.00;0.00;;;;;15.31;54.82;101170.50;5036116;28;45335;-65
2022/05/25 07:42:01;;;;;;;;;0.33;0.33;;;;;15.33;54.63;101171.25;5017163;28;45250;-65
2022/05/25 07:44:32;;;;;;;;;0.00;0.00;;;;;15.38;54.60;101173.63;5057097;28;45544;-61
2022/05/25 07:46:57;;;;;;;;;1.00;1.00;;;;;15.41;54.46;101175.25;5053928;28;46217;-63
2022/05/25 07:49:26;;;;;;;;;0.00;0.00;;;;;15.44;54.40;101172.34;5034171;28;45449;-64
2022/05/25 07:51:53;;;;;;;;;1.00;0.00;;;;;15.42;54.34;101167.09;5016764;28;45405;-64
2022/05/25 07:54:22;;;;;;;;;0.00;0.00;;;;;15.42;54.02;101169.78;5016707;28;45558;-60
2022/05/25 07:56:47;;;;;;;;;1.00;1.00;;;;;15.50;53.57;101171.97;5015942;28;46128;-62
2022/05/25 07:59:15;;;;;;;;;1.00;1.00;;;;;15.55;53.36;101175.19;5015995;28;45294;-65
2022/05/25 08:07:20;;;;;;;;;1.00;0.00;;;;;15.74;52.48;101181.03;5023305;28;45892;-63
2022/05/25 08:09:46;;;;;;;;;0.33;0.33;;;;;15.76;51.96;101184.50;5036241;28;45380;-61
2022/05/25 08:12:12;;;;;;;;;0.00;0.00;;;;;15.80;51.34;101186.00;5039099;28;45430;-64
2022/05/25 08:14:38;;;;;;;;;0.00;0.00;;;;;15.85;52.00;101186.53;5044373;28;45398;-63
2022/05/25 08:17:06;;;;;;;;;0.00;0.00;;;;;15.99;52.18;101179.34;5036537;28;46146;-65
2022/05/25 08:19:32;;;;;;;;;1.00;1.00;;;;;16.35;51.00;101181.28;5054888;28;45270;-65
2022/05/25 08:21:58;;;;;;;;;0.33;0.33;;;;;16.88;48.72;101184.66;5055981;28;45274;-64
2022/05/25 08:24:23;;;;;;;;;0.00;0.00;;;;;17.52;48.70;101185.25;5033456;28;45586;-67
2022/05/25 08:26:49;;;;;;;;;1.00;1.00;;;;;18.08;46.96;101172.84;5019118;28;45387;-65
2022/05/25 08:29:15;;;;;;;;;0.67;0.67;;;;;18.46;47.83;101172.50;5037111;28;45259;-66
2022/05/25 08:31:40;;;;;;;;;0.00;0.00;;;;;18.84;44.82;101171.28;5016028;28;45291;-66
2022/05/25 08:34:06;;;;;;;;;0.00;0.00;;;;;19.21;43.70;101179.91;5016362;28;45250;-65
2022/05/25 08:36:32;;;;;;;;;4.00;1.00;;;;;19.51;43.72;101175.59;5014503;28;47721;-67
2022/05/25 08:38:58;;;;;;;;;1.00;1.00;;;;;19.93;44.50;101169.31;5033962;28;45551;-64
2022/05/25 08:41:29;;;;;;;;;0.33;0.00;;;;;20.17;40.80;101165.44;5036026;28;45372;-67
2022/05/25 08:43:55;;;;;;;;;0.00;0.00;;;;;20.41;40.98;101176.81;5036221;28;45350;-66
2022/05/25 08:46:24;;;;;;;;;0.00;0.00;;;;;20.70;40.46;101165.28;5035875;28;45613;-64
2022/05/25 08:48:51;;;;;;;;;1.00;0.00;;;;;21.15;38.35;101174.66;5034319;28;45452;-65
2022/05/25 08:51:20;;;;;;;;;1.25;1.25;;;;;21.42;39.42;101168.59;5034090;28;45439;-65
2022/05/25 08:53:49;;;;;;;;;0.00;0.00;;;;;21.58;39.00;101173.41;5051199;28;45505;-67
2022/05/25 08:56:24;;;;;;;;;0.25;0.25;;;;;21.67;37.59;101161.75;5034125;28;45496;-64
2022/05/25 08:59:03;;;;;;;;;0.00;0.00;;;;;21.95;38.20;101181.66;5035381;28;45889;-65
2022/05/25 09:01:37;;;;;;;;;1.00;0.00;;;;;22.04;36.71;101179.94;5034299;28;45374;-66
2022/05/25 09:04:26;;;;;;;;;0.25;0.00;;;;;22.27;37.68;101177.78;5049303;28;45545;-65
2022/05/25 09:07:10;;;;;;;;;0.00;0.00;;;;;22.42;37.01;101187.13;5035469;28;45568;-65
2022/05/25 09:09:44;;;;;;;;;0.00;0.00;;;;;22.63;38.54;101193.16;5035659;28;45425;-65
2022/05/25 09:12:18;;;;;;;;;0.00;0.00;;;;;22.76;38.23;101187.41;5035755;28;45382;-65
2022/05/25 09:14:45;;;;;;;;;2.00;1.00;;;;;22.72;36.80;101188.72;5035531;28;45382;-66
2022/05/25 09:17:22;;;;;;;;;0.00;0.00;;;;;22.67;36.54;101193.75;5034941;28;45978;-66
2022/05/25 09:19:48;;;;;;;;;0.00;0.00;;;;;22.71;37.04;101178.88;5035027;28;45385;-67
2022/05/25 09:22:21;;;;;;;;;0.50;0.25;;;;;22.85;36.86;101181.09;5020525;28;45493;-67
2022/05/25 09:24:49;;;;;;;;;0.00;0.00;;;;;22.88;37.42;101177.22;5015584;28;45458;-66
2022/05/25 09:27:18;;;;;;;;;0.00;0.00;;;;;22.97;37.08;101178.19;5028274;28;45513;-66
2022/05/25 09:29:44;;;;;;;;;1.00;1.00;;;;;22.97;38.99;101172.78;5032822;28;45473;-62
2022/05/25 09:32:37;;;;;;;;;0.50;0.00;;;;;23.13;38.01;101183.81;5028444;28;45267;-54
2022/05/25 09:35:07;;;;;;;;;0.00;0.00;;;;;23.36;37.30;101179.63;5017676;28;45549;-57
2022/05/25 09:37:41;;;;;;;;;2.75;0.25;;;;;23.47;38.15;101176.69;5051674;28;45615;-57
2022/05/25 09:40:32;;;;;;;;;0.00;0.00;;;;;23.71;36.96;101172.53;5037968;28;45481;-55
2022/05/25 09:42:58;;;;;;;;;0.00;0.00;;;;;23.89;36.61;101173.34;5037812;28;45404;-52
2022/05/25 09:45:45;;;;;;;;;1.00;1.00;;;;;24.03;36.13;101167.34;5036224;28;45165;-54
2022/05/25 09:48:13;;;;;;;;;0.00;0.00;;;;;24.26;36.24;101174.97;5032558;28;46348;-53
2022/05/25 09:50:44;;;;;;;;;0.80;0.80;;;;;24.29;31.11;101177.34;5019177;28;45366;-52
2022/05/25 09:53:16;;;;;;;;;0.00;0.00;;;;;24.33;35.07;101178.75;5050173;28;45467;-53
2022/05/25 09:55:46;;;;;;;;;0.25;0.25;;;;;24.57;34.76;101194.34;5039687;28;45363;-55
2022/05/25 09:58:26;;;;;;;;;0.25;0.25;;;;;24.71;34.31;101181.00;5042647;28;45518;-53
2022/05/25 10:01:16;;;;;;;;;0.40;0.40;;;;;24.93;34.82;101181.44;5037597;28;45517;-55
2022/05/25 10:03:44;;;;;;;;;0.80;0.00;;;;;25.03;32.36;101186.78;5022427;28;45409;-56
2022/05/25 10:06:28;;;;;;;;;0.00;0.00;;;;;25.11;33.26;101182.19;5030116;28;45461;-61
2022/05/25 10:09:16;;;;;;;;;0.60;0.60;;;;;25.27;34.55;101187.69;5017832;28;46099;-60
2022/05/25 10:11:48;;;;;;;;;0.00;0.00;;;;;25.16;33.51;101173.53;5016890;28;45297;-60
2022/05/25 10:14:21;;;;;;;;;0.00;0.00;;;;;25.01;32.73;101178.78;5005271;28;45352;-61
2022/05/25 10:16:47;;;;;;;;;0.00;0.00;;;;;24.78;31.29;101183.06;5037688;28;45422;-65
2022/05/25 10:19:17;;;;;;;;;0.00;0.00;;;;;24.48;31.66;101193.47;5037978;28;46613;-65
2022/05/25 10:21:50;;;;;;;;;0.00;0.00;;;;;24.32;33.17;101187.94;5037920;28;45437;-67
2022/05/25 10:24:42;;;;;;;;;0.00;0.00;;;;;24.15;33.64;101189.66;5043878;28;45343;-70
2022/05/25 10:27:27;;;;;;;;;0.00;0.00;;;;;23.87;34.44;101183.53;5037587;28;45384;-66
2022/05/25 10:38:27;;;;;;;;;0.00;0.00;;;;;22.57;36.39;101198.34;5044709;28;45469;-65
2022/05/25 10:40:54;;;;;;;;;1.00;1.00;;;;;22.28;36.42;101190.31;5048470;28;45442;-66
2022/05/25 10:43:26;;;;;;;;;0.80;0.80;;;;;22.09;35.97;101188.50;5057304;28;45420;-65
2022/05/25 10:45:53;;;;;;;;;0.00;0.00;;;;;21.81;36.60;101186.66;5038821;28;45398;-66
2022/05/25 10:48:50;;;;;;;;;0.00;0.00;;;;;21.56;35.88;101177.28;5037610;28;45454;-68
2022/05/25 10:51:33;;;;;;;;;1.25;0.75;;;;;21.27;37.37;101191.66;5037202;28;45507;-69
2022/05/25 10:57:07;;;;;;;;;1.50;0.00;;;;;21.00;34.79;101189.56;5029250;28;45296;-69
2022/05/25 10:59:59;;;;;;;;;1.25;0.00;;;;;20.94;36.10;101187.41;5017766;28;45536;-68
2022/05/25 11:02:51;;;;;;;;;0.00;0.00;;;;;20.87;36.37;101191.66;5057261;28;46340;-67
2022/05/25 11:05:42;;;;;;;;;0.50;0.50;;;;;20.82;37.40;101194.78;5055526;28;45377;-68
2022/05/25 11:08:42;;;;;;;;;0.00;0.00;;;;;20.79;37.43;101191.50;5057179;28;45232;-66
2022/05/25 11:11:08;;;;;;;;;3.00;0.00;;;;;20.77;37.11;101193.47;5017285;28;45346;-64
2022/05/25 11:13:40;;;;;;;;;0.50;0.50;;;;;20.78;37.75;101200.59;5017069;28;46275;-64
2022/05/25 11:16:30;;;;;;;;;0.75;0.75;;;;;20.74;37.39;101188.34;5016626;28;45240;-65
2022/05/25 11:19:33;;;;;;;;;0.25;0.25;;;;;20.76;36.94;101191.78;5016884;28;45486;-63
2022/05/25 11:22:06;;;;;;;;;0.00;0.00;;;;;20.76;36.92;101189.94;5016897;28;45741;-63
2022/05/25 11:24:43;;;;;;;;;1.00;1.00;;;;;20.88;37.71;101190.69;5030466;28;45841;-64
2022/05/25 11:27:12;;;;;;;;;0.75;0.75;;;;;20.98;37.28;101196.97;5049679;28;45408;-64
2022/05/25 11:30:01;;;;;;;;;0.00;0.00;;;;;21.01;36.38;101191.28;5043100;28;45414;-65
2022/05/25 11:32:56;;;;;;;;;0.00;0.00;;;;;21.09;35.81;101186.00;5017915;28;45994;-66
2022/05/25 11:35:42;;;;;;;;;0.00;0.00;;;;;21.14;36.31;101191.03;5016423;28;46193;-70
2022/05/25 11:38:21;;;;;;;;;1.00;0.00;;;;;21.01;37.06;101190.44;5030627;28;45524;-66
2022/05/25 11:41:20;;;;;;;;;1.00;1.00;;;;;20.89;37.28;101186.97;5032499;28;45406;-65
2022/05/25 11:44:19;;;;;;;;;0.75;0.75;;;;;21.01;37.33;101190.44;5048872;28;45281;-68
2022/05/25 11:46:47;;;;;;;;;0.00;0.00;;;;;21.34;36.26;101184.66;5035099;28;45453;-66
2022/05/25 11:49:16;;;;;;;;;0.00;0.00;;;;;21.60;36.48;101182.25;5030850;28;46442;-71
2022/05/25 11:52:16;;;;;;;;;0.00;0.00;;;;;21.59;36.28;101179.69;5037917;28;45464;-70
2022/05/25 11:54:57;;;;;;;;;1.00;1.00;;;;;21.54;35.93;101185.53;5020317;28;45469;-70
2022/05/25 11:57:39;;;;;;;;;2.00;0.00;;;;;21.70;35.13;101182.25;5050966;28;46586;-71
2022/05/25 12:00:12;;;;;;;;;0.00;0.00;;;;;21.80;35.48;101185.81;5055964;28;45329;-69
2022/05/25 12:02:59;;;;;;;;;0.25;0.25;;;;;21.83;35.37;101198.19;5054481;28;45437;-69
2022/05/25 12:05:46;;;;;;;;;0.00;0.00;;;;;21.77;34.47;101177.97;5044197;28;45298;-66
2022/05/25 12:08:49;;;;;;;;;0.00;0.00;;;;;21.92;36.30;101186.50;5017884;28;46110;-66
2022/05/25 12:11:19;;;;;;;;;0.00;0.00;;;;;22.03;34.76;101191.78;5033829;28;45391;-70
2022/05/25 12:14:00;;;;;;;;;1.00;0.00;;;;;22.16;34.75;101195.06;5035907;28;45344;-70
2022/05/25 12:16:36;;;;;;;;;1.50;0.00;;;;;22.39;35.38;101190.13;5035992;28;45509;-66